sensor_id;sensor_type;location;lat;lon;timestamp;P1;durP1;ratioP1;P2;durP2;ratioP2
36747;SDS011;22716;51.556;5.080;2023-09-08T00:00:28;11.60;;;7.13;;
36747;SDS011;22716;51.556;5.080;2023-09-08T00:02:57;9.37;;;6.40;;
36747;SDS011;22716;51.556;5.080;2023-09-08T00:05:25;8.13;;;7.10;;
36747;SDS011;22716;51.556;5.080;2023-09-08T00:07:54;9.65;;;6.03;;
36747;SDS011;22716;51.556;5.080;2023-09-08T00:10:23;12.13;;;6.87;;
36747;SDS011;22716;51.556;5.080;2023-09-08T00:12:54;9.52;;;6.75;;
36747;SDS011;22716;51.556;5.080;2023-09-08T00:15:23;10.40;;;6.80;;
36747;SDS011;22716;51.556;5.080;2023-09-08T00:17:52;12.60;;;7.30;;
36747;SDS011;22716;51.556;5.080;2023-09-08T00:20:22;10.33;;;6.90;;
36747;SDS011;22716;51.556;5.080;2023-09-08T00:22:50;8.50;;;7.10;;
36747;SDS011;22716;51.556;5.080;2023-09-08T00:25:19;11.00;;;6.90;;
36747;SDS011;22716;51.556;5.080;2023-09-08T00:27:48;10.23;;;6.40;;
36747;SDS011;22716;51.556;5.080;2023-09-08T00:30:19;8.70;;;7.22;;
36747;SDS011;22716;51.556;5.080;2023-09-08T00:32:47;8.33;;;6.93;;
36747;SDS011;22716;51.556;5.080;2023-09-08T00:35:16;10.17;;;7.53;;
36747;SDS011;22716;51.556;5.080;2023-09-08T00:37:44;11.23;;;7.03;;
36747;SDS011;22716;51.556;5.080;2023-09-08T00:40:13;8.90;;;5.83;;
36747;SDS011;22716;51.556;5.080;2023-09-08T00:42:41;8.77;;;7.43;;
36747;SDS011;22716;51.556;5.080;2023-09-08T00:45:10;10.50;;;6.97;;
36747;SDS011;22716;51.556;5.080;2023-09-08T00:47:42;11.00;;;7.27;;
36747;SDS011;22716;51.556;5.080;2023-09-08T00:50:10;9.20;;;6.57;;
36747;SDS011;22716;51.556;5.080;2023-09-08T00:52:40;7.47;;;6.73;;
36747;SDS011;22716;51.556;5.080;2023-09-08T00:55:09;7.97;;;6.27;;
36747;SDS011;22716;51.556;5.080;2023-09-08T00:57:37;8.63;;;7.00;;
36747;SDS011;22716;51.556;5.080;2023-09-08T01:00:07;9.17;;;7.00;;
36747;SDS011;22716;51.556;5.080;2023-09-08T01:02:36;10.40;;;6.50;;
36747;SDS011;22716;51.556;5.080;2023-09-08T01:05:08;9.00;;;7.07;;
36747;SDS011;22716;51.556;5.080;2023-09-08T01:07:37;11.93;;;6.67;;
36747;SDS011;22716;51.556;5.080;2023-09-08T01:10:07;9.67;;;6.83;;
36747;SDS011;22716;51.556;5.080;2023-09-08T01:12:37;12.17;;;7.30;;
36747;SDS011;22716;51.556;5.080;2023-09-08T01:15:06;8.93;;;7.30;;
36747;SDS011;22716;51.556;5.080;2023-09-08T01:17:36;8.20;;;7.27;;
36747;SDS011;22716;51.556;5.080;2023-09-08T01:20:06;8.80;;;7.20;;
36747;SDS011;22716;51.556;5.080;2023-09-08T01:23:03;9.57;;;7.13;;
36747;SDS011;22716;51.556;5.080;2023-09-08T01:25:46;12.00;;;7.10;;
36747;SDS011;22716;51.556;5.080;2023-09-08T01:28:20;13.30;;;7.83;;
36747;SDS011;22716;51.556;5.080;2023-09-08T01:30:50;7.53;;;6.70;;
36747;SDS011;22716;51.556;5.080;2023-09-08T01:33:20;11.13;;;7.70;;
36747;SDS011;22716;51.556;5.080;2023-09-08T01:35:51;13.70;;;7.63;;
36747;SDS011;22716;51.556;5.080;2023-09-08T01:38:20;10.77;;;8.70;;
36747;SDS011;22716;51.556;5.080;2023-09-08T01:40:52;11.23;;;7.37;;
36747;SDS011;22716;51.556;5.080;2023-09-08T01:43:21;7.80;;;7.00;;
36747;SDS011;22716;51.556;5.080;2023-09-08T01:45:49;12.40;;;6.53;;
36747;SDS011;22716;51.556;5.080;2023-09-08T01:48:18;12.23;;;6.83;;
36747;SDS011;22716;51.556;5.080;2023-09-08T01:50:46;11.03;;;7.00;;
36747;SDS011;22716;51.556;5.080;2023-09-08T01:53:15;12.27;;;7.23;;
36747;SDS011;22716;51.556;5.080;2023-09-08T01:55:44;8.80;;;7.43;;
36747;SDS011;22716;51.556;5.080;2023-09-08T01:58:15;9.10;;;7.30;;
36747;SDS011;22716;51.556;5.080;2023-09-08T02:00:47;12.40;;;7.57;;
36747;SDS011;22716;51.556;5.080;2023-09-08T02:03:16;7.72;;;6.22;;
36747;SDS011;22716;51.556;5.080;2023-09-08T02:05:45;8.33;;;6.60;;
36747;SDS011;22716;51.556;5.080;2023-09-08T02:08:14;11.93;;;7.80;;
36747;SDS011;22716;51.556;5.080;2023-09-08T02:10:43;9.33;;;7.87;;
36747;SDS011;22716;51.556;5.080;2023-09-08T02:13:11;17.80;;;8.50;;
36747;SDS011;22716;51.556;5.080;2023-09-08T02:15:42;9.37;;;7.67;;
36747;SDS011;22716;51.556;5.080;2023-09-08T02:18:11;12.87;;;7.43;;
36747;SDS011;22716;51.556;5.080;2023-09-08T02:20:40;8.47;;;7.27;;
36747;SDS011;22716;51.556;5.080;2023-09-08T02:23:08;11.70;;;8.27;;
36747;SDS011;22716;51.556;5.080;2023-09-08T02:25:37;9.20;;;6.63;;
36747;SDS011;22716;51.556;5.080;2023-09-08T02:28:05;9.23;;;7.30;;
36747;SDS011;22716;51.556;5.080;2023-09-08T02:30:34;10.03;;;8.30;;
36747;SDS011;22716;51.556;5.080;2023-09-08T02:33:06;8.63;;;7.17;;
36747;SDS011;22716;51.556;5.080;2023-09-08T02:35:36;9.37;;;7.43;;
36747;SDS011;22716;51.556;5.080;2023-09-08T02:38:05;10.83;;;7.80;;
36747;SDS011;22716;51.556;5.080;2023-09-08T02:40:34;8.40;;;7.50;;
36747;SDS011;22716;51.556;5.080;2023-09-08T02:43:03;11.03;;;7.77;;
36747;SDS011;22716;51.556;5.080;2023-09-08T02:45:32;10.27;;;8.27;;
36747;SDS011;22716;51.556;5.080;2023-09-08T02:48:00;10.05;;;7.00;;
36747;SDS011;22716;51.556;5.080;2023-09-08T02:50:31;10.03;;;7.63;;
36747;SDS011;22716;51.556;5.080;2023-09-08T02:53:00;10.88;;;7.50;;
36747;SDS011;22716;51.556;5.080;2023-09-08T02:55:28;12.02;;;8.23;;
36747;SDS011;22716;51.556;5.080;2023-09-08T02:57:58;10.73;;;7.53;;
36747;SDS011;22716;51.556;5.080;2023-09-08T03:00:27;17.90;;;9.23;;
36747;SDS011;22716;51.556;5.080;2023-09-08T03:02:55;9.63;;;8.63;;
36747;SDS011;22716;51.556;5.080;2023-09-08T03:05:24;9.67;;;8.20;;
36747;SDS011;22716;51.556;5.080;2023-09-08T03:07:55;10.23;;;7.97;;
36747;SDS011;22716;51.556;5.080;2023-09-08T03:10:23;12.07;;;8.18;;
36747;SDS011;22716;51.556;5.080;2023-09-08T03:12:53;16.53;;;8.80;;
36747;SDS011;22716;51.556;5.080;2023-09-08T03:15:22;11.20;;;8.30;;
36747;SDS011;22716;51.556;5.080;2023-09-08T03:17:53;10.23;;;8.70;;
36747;SDS011;22716;51.556;5.080;2023-09-08T03:20:22;11.60;;;8.93;;
36747;SDS011;22716;51.556;5.080;2023-09-08T03:22:51;11.53;;;8.40;;
36747;SDS011;22716;51.556;5.080;2023-09-08T03:25:22;10.05;;;8.90;;
36747;SDS011;22716;51.556;5.080;2023-09-08T03:27:51;13.43;;;8.23;;
36747;SDS011;22716;51.556;5.080;2023-09-08T03:30:19;9.93;;;8.43;;
36747;SDS011;22716;51.556;5.080;2023-09-08T03:32:47;9.87;;;8.67;;
36747;SDS011;22716;51.556;5.080;2023-09-08T03:35:16;11.65;;;9.50;;
36747;SDS011;22716;51.556;5.080;2023-09-08T03:37:45;11.90;;;8.50;;
36747;SDS011;22716;51.556;5.080;2023-09-08T03:40:13;9.27;;;8.37;;
36747;SDS011;22716;51.556;5.080;2023-09-08T03:42:44;10.18;;;8.90;;
36747;SDS011;22716;51.556;5.080;2023-09-08T03:45:13;11.40;;;9.75;;
36747;SDS011;22716;51.556;5.080;2023-09-08T03:47:41;12.03;;;9.50;;
36747;SDS011;22716;51.556;5.080;2023-09-08T03:50:10;14.67;;;8.27;;
36747;SDS011;22716;51.556;5.080;2023-09-08T03:52:38;10.43;;;9.43;;
36747;SDS011;22716;51.556;5.080;2023-09-08T03:55:07;10.50;;;9.40;;
36747;SDS011;22716;51.556;5.080;2023-09-08T03:57:36;15.73;;;10.13;;
36747;SDS011;22716;51.556;5.080;2023-09-08T04:00:08;11.20;;;9.43;;
36747;SDS011;22716;51.556;5.080;2023-09-08T04:02:38;12.90;;;9.47;;
36747;SDS011;22716;51.556;5.080;2023-09-08T04:05:07;11.47;;;9.53;;
36747;SDS011;22716;51.556;5.080;2023-09-08T04:07:37;14.13;;;10.53;;
36747;SDS011;22716;51.556;5.080;2023-09-08T04:10:06;10.83;;;9.00;;
36747;SDS011;22716;51.556;5.080;2023-09-08T04:12:36;12.10;;;10.03;;
36747;SDS011;22716;51.556;5.080;2023-09-08T04:15:08;11.27;;;9.50;;
36747;SDS011;22716;51.556;5.080;2023-09-08T04:17:37;14.23;;;10.02;;
36747;SDS011;22716;51.556;5.080;2023-09-08T04:20:07;13.93;;;10.88;;
36747;SDS011;22716;51.556;5.080;2023-09-08T04:22:36;11.00;;;9.85;;
36747;SDS011;22716;51.556;5.080;2023-09-08T04:25:04;11.68;;;9.63;;
36747;SDS011;22716;51.556;5.080;2023-09-08T04:27:33;13.38;;;9.82;;
36747;SDS011;22716;51.556;5.080;2023-09-08T04:30:02;12.60;;;10.13;;
36747;SDS011;22716;51.556;5.080;2023-09-08T04:32:34;10.27;;;8.73;;
36747;SDS011;22716;51.556;5.080;2023-09-08T04:35:03;19.87;;;10.73;;
36747;SDS011;22716;51.556;5.080;2023-09-08T04:37:33;12.07;;;8.87;;
36747;SDS011;22716;51.556;5.080;2023-09-08T04:40:02;16.07;;;9.93;;
36747;SDS011;22716;51.556;5.080;2023-09-08T04:42:32;11.82;;;10.05;;
36747;SDS011;22716;51.556;5.080;2023-09-08T04:45:01;13.50;;;9.90;;
36747;SDS011;22716;51.556;5.080;2023-09-08T04:47:30;13.93;;;10.43;;
36747;SDS011;22716;51.556;5.080;2023-09-08T04:50:01;13.87;;;10.73;;
36747;SDS011;22716;51.556;5.080;2023-09-08T04:52:30;14.25;;;10.90;;
36747;SDS011;22716;51.556;5.080;2023-09-08T04:54:58;12.47;;;11.03;;
36747;SDS011;22716;51.556;5.080;2023-09-08T04:57:27;16.40;;;11.23;;
36747;SDS011;22716;51.556;5.080;2023-09-08T04:59:55;11.68;;;9.77;;
36747;SDS011;22716;51.556;5.080;2023-09-08T05:02:24;12.88;;;10.93;;
36747;SDS011;22716;51.556;5.080;2023-09-08T05:04:52;11.47;;;10.13;;
36747;SDS011;22716;51.556;5.080;2023-09-08T05:07:24;10.68;;;9.57;;
36747;SDS011;22716;51.556;5.080;2023-09-08T05:09:52;13.32;;;10.85;;
36747;SDS011;22716;51.556;5.080;2023-09-08T05:12:21;12.53;;;10.70;;
36747;SDS011;22716;51.556;5.080;2023-09-08T05:14:50;14.75;;;11.70;;
36747;SDS011;22716;51.556;5.080;2023-09-08T05:17:23;11.60;;;10.30;;
36747;SDS011;22716;51.556;5.080;2023-09-08T05:19:51;13.68;;;10.48;;
36747;SDS011;22716;51.556;5.080;2023-09-08T05:22:20;13.60;;;12.07;;
36747;SDS011;22716;51.556;5.080;2023-09-08T05:24:51;12.60;;;10.57;;
36747;SDS011;22716;51.556;5.080;2023-09-08T05:27:19;13.13;;;10.50;;
36747;SDS011;22716;51.556;5.080;2023-09-08T05:29:48;13.00;;;10.45;;
36747;SDS011;22716;51.556;5.080;2023-09-08T05:32:17;15.25;;;10.70;;
36747;SDS011;22716;51.556;5.080;2023-09-08T05:34:45;14.40;;;9.85;;
36747;SDS011;22716;51.556;5.080;2023-09-08T05:37:14;12.45;;;10.32;;
36747;SDS011;22716;51.556;5.080;2023-09-08T05:39:42;12.65;;;9.90;;
36747;SDS011;22716;51.556;5.080;2023-09-08T05:42:13;12.02;;;9.77;;
36747;SDS011;22716;51.556;5.080;2023-09-08T05:44:42;12.48;;;8.80;;
36747;SDS011;22716;51.556;5.080;2023-09-08T05:47:11;11.85;;;10.57;;
36747;SDS011;22716;51.556;5.080;2023-09-08T05:49:40;15.03;;;10.37;;
36747;SDS011;22716;51.556;5.080;2023-09-08T05:52:08;11.73;;;9.37;;
36747;SDS011;22716;51.556;5.080;2023-09-08T05:54:37;14.50;;;10.27;;
36747;SDS011;22716;51.556;5.080;2023-09-08T05:57:05;18.00;;;10.50;;
36747;SDS011;22716;51.556;5.080;2023-09-08T05:59:37;10.97;;;9.83;;
36747;SDS011;22716;51.556;5.080;2023-09-08T06:02:05;13.52;;;10.48;;
36747;SDS011;22716;51.556;5.080;2023-09-08T06:04:34;13.93;;;10.60;;
36747;SDS011;22716;51.556;5.080;2023-09-08T06:07:03;12.65;;;10.02;;
36747;SDS011;22716;51.556;5.080;2023-09-08T06:09:32;11.48;;;9.00;;
36747;SDS011;22716;51.556;5.080;2023-09-08T06:12:00;11.40;;;10.30;;
36747;SDS011;22716;51.556;5.080;2023-09-08T06:14:29;16.17;;;10.27;;
36747;SDS011;22716;51.556;5.080;2023-09-08T06:17:00;16.52;;;10.57;;
36747;SDS011;22716;51.556;5.080;2023-09-08T06:19:28;14.50;;;10.30;;
36747;SDS011;22716;51.556;5.080;2023-09-08T06:21:57;19.83;;;11.50;;
36747;SDS011;22716;51.556;5.080;2023-09-08T06:24:25;15.20;;;10.47;;
36747;SDS011;22716;51.556;5.080;2023-09-08T06:26:54;14.33;;;10.90;;
36747;SDS011;22716;51.556;5.080;2023-09-08T06:29:22;21.03;;;10.43;;
36747;SDS011;22716;51.556;5.080;2023-09-08T06:31:51;12.63;;;9.63;;
36747;SDS011;22716;51.556;5.080;2023-09-08T06:34:22;12.57;;;10.77;;
36747;SDS011;22716;51.556;5.080;2023-09-08T06:36:51;12.90;;;10.40;;
36747;SDS011;22716;51.556;5.080;2023-09-08T06:39:19;15.80;;;11.87;;
36747;SDS011;22716;51.556;5.080;2023-09-08T06:41:48;11.20;;;10.10;;
36747;SDS011;22716;51.556;5.080;2023-09-08T06:44:17;13.17;;;10.23;;
36747;SDS011;22716;51.556;5.080;2023-09-08T06:46:45;13.50;;;10.03;;
36747;SDS011;22716;51.556;5.080;2023-09-08T06:49:14;15.43;;;10.57;;
36747;SDS011;22716;51.556;5.080;2023-09-08T06:51:45;12.93;;;11.23;;
36747;SDS011;22716;51.556;5.080;2023-09-08T06:54:15;12.00;;;10.43;;
36747;SDS011;22716;51.556;5.080;2023-09-08T06:56:44;15.53;;;11.10;;
36747;SDS011;22716;51.556;5.080;2023-09-08T06:59:12;13.23;;;10.73;;
36747;SDS011;22716;51.556;5.080;2023-09-08T07:01:42;11.43;;;10.20;;
36747;SDS011;22716;51.556;5.080;2023-09-08T07:04:11;13.57;;;10.60;;
36747;SDS011;22716;51.556;5.080;2023-09-08T07:06:39;12.20;;;10.83;;
36747;SDS011;22716;51.556;5.080;2023-09-08T07:09:12;17.20;;;10.07;;
36747;SDS011;22716;51.556;5.080;2023-09-08T07:11:41;15.13;;;9.57;;
36747;SDS011;22716;51.556;5.080;2023-09-08T07:14:10;13.57;;;12.17;;
36747;SDS011;22716;51.556;5.080;2023-09-08T07:16:38;12.80;;;10.83;;
36747;SDS011;22716;51.556;5.080;2023-09-08T07:19:07;15.97;;;11.40;;
36747;SDS011;22716;51.556;5.080;2023-09-08T07:21:35;14.77;;;11.27;;
36747;SDS011;22716;51.556;5.080;2023-09-08T07:24:05;13.20;;;10.27;;
36747;SDS011;22716;51.556;5.080;2023-09-08T07:26:37;16.77;;;10.57;;
36747;SDS011;22716;51.556;5.080;2023-09-08T07:29:06;11.82;;;9.93;;
36747;SDS011;22716;51.556;5.080;2023-09-08T07:31:34;11.05;;;9.95;;
36747;SDS011;22716;51.556;5.080;2023-09-08T07:34:03;12.50;;;11.27;;
36747;SDS011;22716;51.556;5.080;2023-09-08T07:36:32;21.93;;;14.10;;
36747;SDS011;22716;51.556;5.080;2023-09-08T07:39:01;13.57;;;10.63;;
36747;SDS011;22716;51.556;5.080;2023-09-08T07:41:29;12.15;;;10.02;;
36747;SDS011;22716;51.556;5.080;2023-09-08T07:44:00;11.43;;;9.80;;
36747;SDS011;22716;51.556;5.080;2023-09-08T07:46:29;18.02;;;11.75;;
36747;SDS011;22716;51.556;5.080;2023-09-08T07:48:57;15.40;;;10.87;;
36747;SDS011;22716;51.556;5.080;2023-09-08T07:51:27;14.95;;;11.05;;
36747;SDS011;22716;51.556;5.080;2023-09-08T07:53:56;13.82;;;10.23;;
36747;SDS011;22716;51.556;5.080;2023-09-08T07:56:24;14.00;;;10.73;;
36747;SDS011;22716;51.556;5.080;2023-09-08T07:58:53;11.98;;;10.63;;
36747;SDS011;22716;51.556;5.080;2023-09-08T08:01:24;12.15;;;10.23;;
36747;SDS011;22716;51.556;5.080;2023-09-08T08:03:53;13.73;;;10.32;;
36747;SDS011;22716;51.556;5.080;2023-09-08T08:06:21;11.00;;;9.55;;
36747;SDS011;22716;51.556;5.080;2023-09-08T08:08:50;14.40;;;10.38;;
36747;SDS011;22716;51.556;5.080;2023-09-08T08:11:18;10.25;;;9.13;;
36747;SDS011;22716;51.556;5.080;2023-09-08T08:13:47;10.48;;;8.73;;
36747;SDS011;22716;51.556;5.080;2023-09-08T08:16:15;11.82;;;9.27;;
36747;SDS011;22716;51.556;5.080;2023-09-08T08:18:48;11.15;;;9.93;;
36747;SDS011;22716;51.556;5.080;2023-09-08T08:21:16;12.27;;;9.82;;
36747;SDS011;22716;51.556;5.080;2023-09-08T08:23:45;11.10;;;9.35;;
36747;SDS011;22716;51.556;5.080;2023-09-08T08:26:14;15.45;;;10.23;;
36747;SDS011;22716;51.556;5.080;2023-09-08T08:28:43;11.65;;;9.13;;
36747;SDS011;22716;51.556;5.080;2023-09-08T08:31:12;11.00;;;9.10;;
36747;SDS011;22716;51.556;5.080;2023-09-08T08:33:40;13.52;;;9.23;;
36747;SDS011;22716;51.556;5.080;2023-09-08T08:36:12;9.55;;;8.55;;
36747;SDS011;22716;51.556;5.080;2023-09-08T08:38:40;9.63;;;8.25;;
36747;SDS011;22716;51.556;5.080;2023-09-08T08:41:10;12.80;;;9.13;;
36747;SDS011;22716;51.556;5.080;2023-09-08T08:43:38;11.13;;;8.85;;
36747;SDS011;22716;51.556;5.080;2023-09-08T08:46:08;10.00;;;7.97;;
36747;SDS011;22716;51.556;5.080;2023-09-08T08:48:37;9.75;;;7.60;;
36747;SDS011;22716;51.556;5.080;2023-09-08T08:51:07;10.73;;;8.15;;
36747;SDS011;22716;51.556;5.080;2023-09-08T08:53:39;15.23;;;8.40;;
36747;SDS011;22716;51.556;5.080;2023-09-08T08:56:10;10.13;;;7.93;;
36747;SDS011;22716;51.556;5.080;2023-09-08T08:58:39;11.38;;;8.85;;
36747;SDS011;22716;51.556;5.080;2023-09-08T09:01:09;11.18;;;10.07;;
36747;SDS011;22716;51.556;5.080;2023-09-08T09:03:39;9.27;;;8.38;;
36747;SDS011;22716;51.556;5.080;2023-09-08T09:06:09;12.93;;;9.48;;
36747;SDS011;22716;51.556;5.080;2023-09-08T09:08:41;10.05;;;9.02;;
36747;SDS011;22716;51.556;5.080;2023-09-08T09:13:40;10.55;;;8.85;;
36747;SDS011;22716;51.556;5.080;2023-09-08T09:16:09;10.33;;;8.83;;
36747;SDS011;22716;51.556;5.080;2023-09-08T09:18:52;10.25;;;9.15;;
36747;SDS011;22716;51.556;5.080;2023-09-08T09:21:22;8.75;;;7.95;;
36747;SDS011;22716;51.556;5.080;2023-09-08T09:23:54;12.13;;;8.27;;
36747;SDS011;22716;51.556;5.080;2023-09-08T09:26:23;10.73;;;9.43;;
36747;SDS011;22716;51.556;5.080;2023-09-08T09:28:52;9.98;;;8.75;;
36747;SDS011;22716;51.556;5.080;2023-09-08T09:31:23;12.52;;;9.07;;
36747;SDS011;22716;51.556;5.080;2023-09-08T09:34:02;11.43;;;7.68;;
36747;SDS011;22716;51.556;5.080;2023-09-08T09:36:32;11.98;;;7.88;;
36747;SDS011;22716;51.556;5.080;2023-09-08T09:39:03;10.57;;;8.35;;
36747;SDS011;22716;51.556;5.080;2023-09-08T09:41:32;11.07;;;9.20;;
36747;SDS011;22716;51.556;5.080;2023-09-08T09:44:02;10.23;;;8.65;;
36747;SDS011;22716;51.556;5.080;2023-09-08T09:46:31;13.55;;;7.82;;
36747;SDS011;22716;51.556;5.080;2023-09-08T09:49:01;9.88;;;8.15;;
36747;SDS011;22716;51.556;5.080;2023-09-08T09:51:30;12.15;;;7.88;;
36747;SDS011;22716;51.556;5.080;2023-09-08T09:54:00;10.73;;;8.15;;
36747;SDS011;22716;51.556;5.080;2023-09-08T09:56:35;14.75;;;9.38;;
36747;SDS011;22716;51.556;5.080;2023-09-08T09:59:07;13.98;;;9.98;;
36747;SDS011;22716;51.556;5.080;2023-09-08T10:01:38;9.98;;;8.95;;
36747;SDS011;22716;51.556;5.080;2023-09-08T10:04:08;8.10;;;7.30;;
36747;SDS011;22716;51.556;5.080;2023-09-08T10:06:37;9.93;;;8.40;;
36747;SDS011;22716;51.556;5.080;2023-09-08T10:09:09;11.20;;;8.05;;
36747;SDS011;22716;51.556;5.080;2023-09-08T10:11:45;7.82;;;6.68;;
36747;SDS011;22716;51.556;5.080;2023-09-08T10:14:16;9.27;;;7.25;;
36747;SDS011;22716;51.556;5.080;2023-09-08T10:16:46;9.00;;;7.75;;
36747;SDS011;22716;51.556;5.080;2023-09-08T10:19:20;21.25;;;6.95;;
36747;SDS011;22716;51.556;5.080;2023-09-08T10:21:50;9.80;;;7.22;;
36747;SDS011;22716;51.556;5.080;2023-09-08T10:24:26;9.07;;;6.63;;
36747;SDS011;22716;51.556;5.080;2023-09-08T10:26:58;10.07;;;8.25;;
36747;SDS011;22716;51.556;5.080;2023-09-08T10:29:32;11.40;;;7.45;;
36747;SDS011;22716;51.556;5.080;2023-09-08T10:32:02;12.02;;;7.00;;
36747;SDS011;22716;51.556;5.080;2023-09-08T10:34:34;10.32;;;7.20;;
36747;SDS011;22716;51.556;5.080;2023-09-08T10:37:10;10.68;;;7.75;;
36747;SDS011;22716;51.556;5.080;2023-09-08T10:39:49;10.90;;;8.40;;
36747;SDS011;22716;51.556;5.080;2023-09-08T10:42:24;10.02;;;7.93;;
36747;SDS011;22716;51.556;5.080;2023-09-08T10:44:57;12.98;;;7.47;;
36747;SDS011;22716;51.556;5.080;2023-09-08T10:47:30;8.38;;;6.93;;
36747;SDS011;22716;51.556;5.080;2023-09-08T10:50:02;9.60;;;7.53;;
36747;SDS011;22716;51.556;5.080;2023-09-08T10:52:32;8.13;;;7.32;;
36747;SDS011;22716;51.556;5.080;2023-09-08T10:55:04;9.73;;;7.93;;
36747;SDS011;22716;51.556;5.080;2023-09-08T10:57:33;11.77;;;7.20;;
36747;SDS011;22716;51.556;5.080;2023-09-08T11:00:03;12.02;;;9.35;;
36747;SDS011;22716;51.556;5.080;2023-09-08T11:02:37;13.95;;;7.40;;
36747;SDS011;22716;51.556;5.080;2023-09-08T11:05:08;9.18;;;7.90;;
36747;SDS011;22716;51.556;5.080;2023-09-08T11:07:38;11.38;;;7.97;;
36747;SDS011;22716;51.556;5.080;2023-09-08T11:10:11;9.98;;;8.02;;
36747;SDS011;22716;51.556;5.080;2023-09-08T11:12:41;9.27;;;7.57;;
36747;SDS011;22716;51.556;5.080;2023-09-08T11:15:09;9.88;;;7.50;;
36747;SDS011;22716;51.556;5.080;2023-09-08T11:17:38;13.95;;;9.23;;
36747;SDS011;22716;51.556;5.080;2023-09-08T11:20:08;11.73;;;7.28;;
36747;SDS011;22716;51.556;5.080;2023-09-08T11:22:38;10.93;;;8.05;;
36747;SDS011;22716;51.556;5.080;2023-09-08T11:25:10;10.70;;;7.78;;
36747;SDS011;22716;51.556;5.080;2023-09-08T11:27:39;7.93;;;7.22;;
36747;SDS011;22716;51.556;5.080;2023-09-08T11:30:10;8.43;;;7.63;;
36747;SDS011;22716;51.556;5.080;2023-09-08T11:32:40;8.73;;;7.88;;
36747;SDS011;22716;51.556;5.080;2023-09-08T11:35:09;11.45;;;7.03;;
36747;SDS011;22716;51.556;5.080;2023-09-08T11:37:39;11.32;;;8.40;;
36747;SDS011;22716;51.556;5.080;2023-09-08T11:40:12;8.63;;;6.75;;
36747;SDS011;22716;51.556;5.080;2023-09-08T11:42:43;8.50;;;7.53;;
36747;SDS011;22716;51.556;5.080;2023-09-08T11:45:12;10.20;;;7.03;;
36747;SDS011;22716;51.556;5.080;2023-09-08T11:47:41;8.43;;;7.05;;
36747;SDS011;22716;51.556;5.080;2023-09-08T11:50:11;7.95;;;7.13;;
36747;SDS011;22716;51.556;5.080;2023-09-08T11:52:42;9.57;;;7.00;;
36747;SDS011;22716;51.556;5.080;2023-09-08T11:55:14;10.70;;;8.35;;
36747;SDS011;22716;51.556;5.080;2023-09-08T11:57:45;14.35;;;9.15;;
36747;SDS011;22716;51.556;5.080;2023-09-08T12:00:17;14.68;;;7.20;;
36747;SDS011;22716;51.556;5.080;2023-09-08T12:02:48;8.70;;;6.95;;
36747;SDS011;22716;51.556;5.080;2023-09-08T12:05:21;10.63;;;7.50;;
36747;SDS011;22716;51.556;5.080;2023-09-08T12:07:51;10.15;;;7.38;;
36747;SDS011;22716;51.556;5.080;2023-09-08T12:10:24;7.57;;;6.55;;
36747;SDS011;22716;51.556;5.080;2023-09-08T12:12:54;11.07;;;7.05;;
36747;SDS011;22716;51.556;5.080;2023-09-08T12:15:32;9.10;;;7.07;;
36747;SDS011;22716;51.556;5.080;2023-09-08T12:18:03;9.90;;;7.05;;
36747;SDS011;22716;51.556;5.080;2023-09-08T12:20:33;9.15;;;7.10;;
36747;SDS011;22716;51.556;5.080;2023-09-08T12:23:03;10.75;;;7.00;;
36747;SDS011;22716;51.556;5.080;2023-09-08T12:25:43;9.15;;;6.45;;
36747;SDS011;22716;51.556;5.080;2023-09-08T12:28:12;10.95;;;6.80;;
36747;SDS011;22716;51.556;5.080;2023-09-08T12:30:41;8.85;;;6.20;;
36747;SDS011;22716;51.556;5.080;2023-09-08T12:33:10;14.15;;;7.25;;
36747;SDS011;22716;51.556;5.080;2023-09-08T12:35:42;10.07;;;6.78;;
36747;SDS011;22716;51.556;5.080;2023-09-08T12:38:10;7.07;;;6.38;;
36747;SDS011;22716;51.556;5.080;2023-09-08T12:40:43;9.73;;;6.88;;
36747;SDS011;22716;51.556;5.080;2023-09-08T12:43:12;7.55;;;5.50;;
36747;SDS011;22716;51.556;5.080;2023-09-08T12:45:40;7.28;;;6.00;;
36747;SDS011;22716;51.556;5.080;2023-09-08T12:48:09;8.93;;;6.20;;
36747;SDS011;22716;51.556;5.080;2023-09-08T12:50:37;9.85;;;5.43;;
36747;SDS011;22716;51.556;5.080;2023-09-08T12:53:06;8.52;;;5.85;;
36747;SDS011;22716;51.556;5.080;2023-09-08T12:55:34;9.27;;;6.25;;
36747;SDS011;22716;51.556;5.080;2023-09-08T12:58:05;8.93;;;5.32;;
36747;SDS011;22716;51.556;5.080;2023-09-08T13:00:34;8.05;;;5.70;;
36747;SDS011;22716;51.556;5.080;2023-09-08T13:03:03;13.68;;;6.05;;
36747;SDS011;22716;51.556;5.080;2023-09-08T13:05:31;6.53;;;5.75;;
36747;SDS011;22716;51.556;5.080;2023-09-08T13:08:00;13.95;;;6.47;;
36747;SDS011;22716;51.556;5.080;2023-09-08T13:10:29;13.75;;;5.82;;
36747;SDS011;22716;51.556;5.080;2023-09-08T13:12:57;14.45;;;5.00;;
36747;SDS011;22716;51.556;5.080;2023-09-08T13:15:28;9.20;;;4.63;;
36747;SDS011;22716;51.556;5.080;2023-09-08T13:17:57;9.77;;;4.28;;
36747;SDS011;22716;51.556;5.080;2023-09-08T13:20:25;6.40;;;4.75;;
36747;SDS011;22716;51.556;5.080;2023-09-08T13:22:54;7.85;;;5.05;;
36747;SDS011;22716;51.556;5.080;2023-09-08T13:25:23;11.55;;;5.45;;
36747;SDS011;22716;51.556;5.080;2023-09-08T13:27:51;6.88;;;5.05;;
36747;SDS011;22716;51.556;5.080;2023-09-08T13:30:20;7.37;;;5.03;;
36747;SDS011;22716;51.556;5.080;2023-09-08T13:32:54;10.73;;;4.82;;
36747;SDS011;22716;51.556;5.080;2023-09-08T13:35:23;7.93;;;4.65;;
36747;SDS011;22716;51.556;5.080;2023-09-08T13:37:51;7.82;;;4.10;;
36747;SDS011;22716;51.556;5.080;2023-09-08T13:40:20;14.50;;;5.55;;
36747;SDS011;22716;51.556;5.080;2023-09-08T13:42:48;9.50;;;5.20;;
36747;SDS011;22716;51.556;5.080;2023-09-08T13:45:17;7.95;;;4.43;;
36747;SDS011;22716;51.556;5.080;2023-09-08T13:47:46;10.07;;;4.65;;
36747;SDS011;22716;51.556;5.080;2023-09-08T13:50:17;10.95;;;4.80;;
36747;SDS011;22716;51.556;5.080;2023-09-08T13:52:49;12.13;;;4.93;;
36747;SDS011;22716;51.556;5.080;2023-09-08T13:55:18;8.82;;;5.05;;
36747;SDS011;22716;51.556;5.080;2023-09-08T13:57:49;9.73;;;4.38;;
36747;SDS011;22716;51.556;5.080;2023-09-08T14:00:17;7.40;;;5.17;;
36747;SDS011;22716;51.556;5.080;2023-09-08T14:02:46;5.97;;;4.47;;
36747;SDS011;22716;51.556;5.080;2023-09-08T14:05:18;5.55;;;4.72;;
36747;SDS011;22716;51.556;5.080;2023-09-08T14:07:47;14.77;;;4.90;;
36747;SDS011;22716;51.556;5.080;2023-09-08T14:10:15;7.00;;;4.97;;
36747;SDS011;22716;51.556;5.080;2023-09-08T14:12:44;13.05;;;4.78;;
36747;SDS011;22716;51.556;5.080;2023-09-08T14:15:12;11.20;;;4.88;;
36747;SDS011;22716;51.556;5.080;2023-09-08T14:17:42;8.27;;;3.23;;
36747;SDS011;22716;51.556;5.080;2023-09-08T14:20:11;9.88;;;4.95;;
36747;SDS011;22716;51.556;5.080;2023-09-08T14:22:42;5.75;;;4.68;;
36747;SDS011;22716;51.556;5.080;2023-09-08T14:25:10;7.53;;;4.40;;
36747;SDS011;22716;51.556;5.080;2023-09-08T14:27:39;6.53;;;4.70;;
36747;SDS011;22716;51.556;5.080;2023-09-08T14:30:07;7.82;;;4.15;;
36747;SDS011;22716;51.556;5.080;2023-09-08T14:32:36;6.28;;;4.75;;
36747;SDS011;22716;51.556;5.080;2023-09-08T14:35:05;6.97;;;4.82;;
36747;SDS011;22716;51.556;5.080;2023-09-08T14:37:34;4.95;;;4.10;;
36747;SDS011;22716;51.556;5.080;2023-09-08T14:40:06;5.88;;;4.07;;
36747;SDS011;22716;51.556;5.080;2023-09-08T14:42:37;4.70;;;3.97;;
36747;SDS011;22716;51.556;5.080;2023-09-08T14:45:06;11.25;;;4.55;;
36747;SDS011;22716;51.556;5.080;2023-09-08T14:47:36;8.95;;;4.07;;
36747;SDS011;22716;51.556;5.080;2023-09-08T14:50:05;7.70;;;4.47;;
36747;SDS011;22716;51.556;5.080;2023-09-08T14:52:35;9.35;;;3.67;;